sensor_id;sensor_type;location;lat;lon;timestamp;temperature;humidity
6788;DHT22;3431;47.966;10.268;2023-07-16T00:00:21;20.90;99.90
6788;DHT22;3431;47.966;10.268;2023-07-16T00:00:50;20.90;99.90
6788;DHT22;3431;47.966;10.268;2023-07-16T00:01:12;20.90;99.90
6788;DHT22;3431;47.966;10.268;2023-07-16T00:01:34;20.90;99.90
6788;DHT22;3431;47.966;10.268;2023-07-16T00:01:56;20.90;99.90
6788;DHT22;3431;47.966;10.268;2023-07-16T00:02:18;20.90;99.90
6788;DHT22;3431;47.966;10.268;2023-07-16T00:02:39;21.00;99.90
6788;DHT22;3431;47.966;10.268;2023-07-16T00:03:01;21.00;99.90
6788;DHT22;3431;47.966;10.268;2023-07-16T00:03:23;21.00;99.90
6788;DHT22;3431;47.966;10.268;2023-07-16T00:03:45;21.00;99.90
6788;DHT22;3431;47.966;10.268;2023-07-16T00:04:06;21.00;99.90
6788;DHT22;3431;47.966;10.268;2023-07-16T00:04:49;21.00;99.90
6788;DHT22;3431;47.966;10.268;2023-07-16T00:05:12;21.60;99.90
6788;DHT22;3431;47.966;10.268;2023-07-16T00:05:34;21.00;99.90
6788;DHT22;3431;47.966;10.268;2023-07-16T00:05:57;21.10;99.90
6788;DHT22;3431;47.966;10.268;2023-07-16T00:06:19;21.10;99.90
6788;DHT22;3431;47.966;10.268;2023-07-16T00:06:40;21.10;99.90
6788;DHT22;3431;47.966;10.268;2023-07-16T00:07:03;21.10;99.90
6788;DHT22;3431;47.966;10.268;2023-07-16T00:07:26;21.10;99.90
6788;DHT22;3431;47.966;10.268;2023-07-16T00:07:50;21.10;99.90
6788;DHT22;3431;47.966;10.268;2023-07-16T00:08:11;21.10;99.90
6788;DHT22;3431;47.966;10.268;2023-07-16T00:08:33;21.10;99.90
6788;DHT22;3431;47.966;10.268;2023-07-16T00:08:54;21.10;99.90
6788;DHT22;3431;47.966;10.268;2023-07-16T00:09:17;21.10;99.90
6788;DHT22;3431;47.966;10.268;2023-07-16T00:09:38;21.10;99.90
6788;DHT22;3431;47.966;10.268;2023-07-16T00:10:00;21.20;99.90
6788;DHT22;3431;47.966;10.268;2023-07-16T00:10:21;21.20;99.90
6788;DHT22;3431;47.966;10.268;2023-07-16T00:10:43;21.10;99.90
6788;DHT22;3431;47.966;10.268;2023-07-16T00:11:04;21.10;99.90
6788;DHT22;3431;47.966;10.268;2023-07-16T00:11:27;21.10;99.90
6788;DHT22;3431;47.966;10.268;2023-07-16T00:11:49;21.20;99.90
6788;DHT22;3431;47.966;10.268;2023-07-16T00:12:10;21.20;99.90
6788;DHT22;3431;47.966;10.268;2023-07-16T00:12:32;21.20;99.90
6788;DHT22;3431;47.966;10.268;2023-07-16T00:12:53;21.20;99.90
6788;DHT22;3431;47.966;10.268;2023-07-16T00:13:15;21.10;99.90
6788;DHT22;3431;47.966;10.268;2023-07-16T00:13:37;21.20;99.90
6788;DHT22;3431;47.966;10.268;2023-07-16T00:13:59;21.20;99.90
6788;DHT22;3431;47.966;10.268;2023-07-16T00:14:23;21.20;99.90
6788;DHT22;3431;47.966;10.268;2023-07-16T00:14:44;21.10;99.90
6788;DHT22;3431;47.966;10.268;2023-07-16T00:15:08;21.20;99.90
6788;DHT22;3431;47.966;10.268;2023-07-16T00:15:29;21.20;99.90
6788;DHT22;3431;47.966;10.268;2023-07-16T00:15:51;21.20;99.90
6788;DHT22;3431;47.966;10.268;2023-07-16T00:16:12;21.20;99.90
6788;DHT22;3431;47.966;10.268;2023-07-16T00:16:34;21.20;99.90
6788;DHT22;3431;47.966;10.268;2023-07-16T00:16:57;21.20;99.90
6788;DHT22;3431;47.966;10.268;2023-07-16T00:17:19;21.20;99.90
6788;DHT22;3431;47.966;10.268;2023-07-16T00:17:40;21.20;99.90
6788;DHT22;3431;47.966;10.268;2023-07-16T00:18:02;21.20;99.90
6788;DHT22;3431;47.966;10.268;2023-07-16T00:18:24;21.20;99.90
6788;DHT22;3431;47.966;10.268;2023-07-16T00:18:45;21.20;99.90
6788;DHT22;3431;47.966;10.268;2023-07-16T00:19:09;21.20;99.90
6788;DHT22;3431;47.966;10.268;2023-07-16T00:19:31;21.20;99.90
6788;DHT22;3431;47.966;10.268;2023-07-16T00:19:53;21.20;99.90
6788;DHT22;3431;47.966;10.268;2023-07-16T00:20:14;21.20;99.90
6788;DHT22;3431;47.966;10.268;2023-07-16T00:20:36;21.20;99.90
6788;DHT22;3431;47.966;10.268;2023-07-16T00:20:58;21.20;99.90
6788;DHT22;3431;47.966;10.268;2023-07-16T00:21:20;21.20;99.90
6788;DHT22;3431;47.966;10.268;2023-07-16T00:21:41;21.20;99.90
6788;DHT22;3431;47.966;10.268;2023-07-16T00:22:04;21.20;99.90
6788;DHT22;3431;47.966;10.268;2023-07-16T00:22:27;21.20;99.90
6788;DHT22;3431;47.966;10.268;2023-07-16T00:22:49;21.20;99.90
6788;DHT22;3431;47.966;10.268;2023-07-16T00:23:11;21.20;99.90
6788;DHT22;3431;47.966;10.268;2023-07-16T00:23:33;21.20;99.90
6788;DHT22;3431;47.966;10.268;2023-07-16T00:23:54;21.20;99.90
6788;DHT22;3431;47.966;10.268;2023-07-16T00:24:17;21.20;99.90
6788;DHT22;3431;47.966;10.268;2023-07-16T00:24:38;21.20;99.90
6788;DHT22;3431;47.966;10.268;2023-07-16T00:25:00;21.20;99.90
6788;DHT22;3431;47.966;10.268;2023-07-16T00:25:22;21.30;99.90
6788;DHT22;3431;47.966;10.268;2023-07-16T00:25:44;21.30;99.90
6788;DHT22;3431;47.966;10.268;2023-07-16T00:26:05;21.30;99.90
6788;DHT22;3431;47.966;10.268;2023-07-16T00:26:27;21.30;99.90
6788;DHT22;3431;47.966;10.268;2023-07-16T00:26:49;21.30;99.90
6788;DHT22;3431;47.966;10.268;2023-07-16T00:27:11;21.30;99.90
6788;DHT22;3431;47.966;10.268;2023-07-16T00:27:32;21.30;99.90
6788;DHT22;3431;47.966;10.268;2023-07-16T00:27:54;21.30;99.90
6788;DHT22;3431;47.966;10.268;2023-07-16T00:28:15;21.30;99.90
6788;DHT22;3431;47.966;10.268;2023-07-16T00:28:38;21.30;99.90
6788;DHT22;3431;47.966;10.268;2023-07-16T00:29:00;21.30;99.90
6788;DHT22;3431;47.966;10.268;2023-07-16T00:29:21;21.30;99.90
6788;DHT22;3431;47.966;10.268;2023-07-16T00:29:43;21.30;99.90
6788;DHT22;3431;47.966;10.268;2023-07-16T00:30:06;21.20;99.90
6788;DHT22;3431;47.966;10.268;2023-07-16T00:30:27;21.20;99.90
6788;DHT22;3431;47.966;10.268;2023-07-16T00:30:50;21.20;99.90
6788;DHT22;3431;47.966;10.268;2023-07-16T00:31:11;21.20;99.90
6788;DHT22;3431;47.966;10.268;2023-07-16T00:31:33;21.20;99.90
6788;DHT22;3431;47.966;10.268;2023-07-16T00:31:54;21.20;99.90
6788;DHT22;3431;47.966;10.268;2023-07-16T00:32:16;21.20;99.90
6788;DHT22;3431;47.966;10.268;2023-07-16T00:32:39;21.20;99.90
6788;DHT22;3431;47.966;10.268;2023-07-16T00:33:00;21.20;99.90
6788;DHT22;3431;47.966;10.268;2023-07-16T00:33:22;21.20;99.90
6788;DHT22;3431;47.966;10.268;2023-07-16T00:33:43;21.20;99.90
6788;DHT22;3431;47.966;10.268;2023-07-16T00:34:05;21.20;99.90
6788;DHT22;3431;47.966;10.268;2023-07-16T00:34:28;21.20;99.90
6788;DHT22;3431;47.966;10.268;2023-07-16T00:34:50;21.20;99.90
6788;DHT22;3431;47.966;10.268;2023-07-16T00:35:12;21.20;99.90
6788;DHT22;3431;47.966;10.268;2023-07-16T00:35:33;21.20;99.90
6788;DHT22;3431;47.966;10.268;2023-07-16T00:35:55;21.20;99.90
6788;DHT22;3431;47.966;10.268;2023-07-16T00:36:19;21.10;99.90
6788;DHT22;3431;47.966;10.268;2023-07-16T00:36:40;21.20;99.90
6788;DHT22;3431;47.966;10.268;2023-07-16T00:37:03;21.20;99.90
6788;DHT22;3431;47.966;10.268;2023-07-16T00:37:25;21.10;99.90
6788;DHT22;3431;47.966;10.268;2023-07-16T00:37:47;21.10;99.90
6788;DHT22;3431;47.966;10.268;2023-07-16T00:38:09;21.10;99.90
6788;DHT22;3431;47.966;10.268;2023-07-16T00:38:31;21.10;99.90
6788;DHT22;3431;47.966;10.268;2023-07-16T00:38:52;21.10;99.90
6788;DHT22;3431;47.966;10.268;2023-07-16T00:39:15;21.10;99.90
6788;DHT22;3431;47.966;10.268;2023-07-16T00:39:36;21.10;99.90
6788;DHT22;3431;47.966;10.268;2023-07-16T00:39:59;21.10;99.90
6788;DHT22;3431;47.966;10.268;2023-07-16T00:40:20;21.10;99.90
6788;DHT22;3431;47.966;10.268;2023-07-16T00:40:42;21.10;99.90
6788;DHT22;3431;47.966;10.268;2023-07-16T00:41:03;21.00;99.90
6788;DHT22;3431;47.966;10.268;2023-07-16T00:41:26;21.00;99.90
6788;DHT22;3431;47.966;10.268;2023-07-16T00:41:47;20.90;99.90
6788;DHT22;3431;47.966;10.268;2023-07-16T00:42:09;20.90;99.90
6788;DHT22;3431;47.966;10.268;2023-07-16T00:42:30;20.80;99.90
6788;DHT22;3431;47.966;10.268;2023-07-16T00:42:52;20.80;99.90
6788;DHT22;3431;47.966;10.268;2023-07-16T00:43:14;20.80;99.90
6788;DHT22;3431;47.966;10.268;2023-07-16T00:43:36;20.80;99.90
6788;DHT22;3431;47.966;10.268;2023-07-16T00:43:58;20.80;99.90
6788;DHT22;3431;47.966;10.268;2023-07-16T00:44:19;20.80;99.90
6788;DHT22;3431;47.966;10.268;2023-07-16T00:44:41;20.80;99.90
6788;DHT22;3431;47.966;10.268;2023-07-16T00:45:09;20.70;99.90
6788;DHT22;3431;47.966;10.268;2023-07-16T00:45:33;20.70;99.90
6788;DHT22;3431;47.966;10.268;2023-07-16T00:45:55;20.60;99.90
6788;DHT22;3431;47.966;10.268;2023-07-16T00:46:17;20.60;99.90
6788;DHT22;3431;47.966;10.268;2023-07-16T00:46:39;20.60;99.90
6788;DHT22;3431;47.966;10.268;2023-07-16T00:47:00;20.50;99.90
6788;DHT22;3431;47.966;10.268;2023-07-16T00:47:24;20.50;99.90
6788;DHT22;3431;47.966;10.268;2023-07-16T00:47:46;20.40;99.90
6788;DHT22;3431;47.966;10.268;2023-07-16T00:48:08;20.40;99.90
6788;DHT22;3431;47.966;10.268;2023-07-16T00:48:30;20.30;99.90
6788;DHT22;3431;47.966;10.268;2023-07-16T00:48:52;20.30;99.90
6788;DHT22;3431;47.966;10.268;2023-07-16T00:49:13;20.30;99.90
6788;DHT22;3431;47.966;10.268;2023-07-16T00:49:36;20.30;99.90
6788;DHT22;3431;47.966;10.268;2023-07-16T00:49:58;20.30;99.90
6788;DHT22;3431;47.966;10.268;2023-07-16T00:50:20;20.20;99.90
6788;DHT22;3431;47.966;10.268;2023-07-16T00:50:42;20.20;99.90
6788;DHT22;3431;47.966;10.268;2023-07-16T00:51:04;20.20;99.90
6788;DHT22;3431;47.966;10.268;2023-07-16T00:51:28;20.10;99.90
6788;DHT22;3431;47.966;10.268;2023-07-16T00:51:50;20.10;99.90
6788;DHT22;3431;47.966;10.268;2023-07-16T00:52:18;20.10;99.90
6788;DHT22;3431;47.966;10.268;2023-07-16T00:52:40;20.00;99.90
6788;DHT22;3431;47.966;10.268;2023-07-16T00:53:02;20.00;99.90
6788;DHT22;3431;47.966;10.268;2023-07-16T00:53:25;20.00;99.90
6788;DHT22;3431;47.966;10.268;2023-07-16T00:53:46;19.90;99.90
6788;DHT22;3431;47.966;10.268;2023-07-16T00:54:08;19.90;99.90
6788;DHT22;3431;47.966;10.268;2023-07-16T00:54:30;19.90;99.90
6788;DHT22;3431;47.966;10.268;2023-07-16T00:54:52;19.80;99.90
6788;DHT22;3431;47.966;10.268;2023-07-16T00:55:14;19.80;99.90
6788;DHT22;3431;47.966;10.268;2023-07-16T00:55:38;19.80;99.90
6788;DHT22;3431;47.966;10.268;2023-07-16T00:56:00;19.70;99.90
6788;DHT22;3431;47.966;10.268;2023-07-16T00:56:22;19.70;99.90
6788;DHT22;3431;47.966;10.268;2023-07-16T00:56:44;19.70;99.90
6788;DHT22;3431;47.966;10.268;2023-07-16T00:57:06;19.70;99.90
6788;DHT22;3431;47.966;10.268;2023-07-16T00:57:29;19.70;99.90
6788;DHT22;3431;47.966;10.268;2023-07-16T00:57:52;19.70;99.90
6788;DHT22;3431;47.966;10.268;2023-07-16T00:58:16;19.60;99.90
6788;DHT22;3431;47.966;10.268;2023-07-16T00:58:37;19.60;99.90
6788;DHT22;3431;47.966;10.268;2023-07-16T00:58:59;19.60;99.90
6788;DHT22;3431;47.966;10.268;2023-07-16T00:59:21;19.60;99.90
6788;DHT22;3431;47.966;10.268;2023-07-16T00:59:43;19.60;99.90
6788;DHT22;3431;47.966;10.268;2023-07-16T01:00:06;19.50;99.90
6788;DHT22;3431;47.966;10.268;2023-07-16T01:00:28;19.50;99.90
6788;DHT22;3431;47.966;10.268;2023-07-16T01:00:50;19.50;99.90
6788;DHT22;3431;47.966;10.268;2023-07-16T01:01:12;19.40;99.90
6788;DHT22;3431;47.966;10.268;2023-07-16T01:01:34;19.40;99.90
6788;DHT22;3431;47.966;10.268;2023-07-16T01:01:56;19.40;99.90
6788;DHT22;3431;47.966;10.268;2023-07-16T01:02:17;19.40;99.90
6788;DHT22;3431;47.966;10.268;2023-07-16T01:02:39;19.30;99.90
6788;DHT22;3431;47.966;10.268;2023-07-16T01:03:01;19.30;99.90
6788;DHT22;3431;47.966;10.268;2023-07-16T01:03:24;19.30;99.90
6788;DHT22;3431;47.966;10.268;2023-07-16T01:03:46;19.30;99.90
6788;DHT22;3431;47.966;10.268;2023-07-16T01:04:08;19.30;99.90
6788;DHT22;3431;47.966;10.268;2023-07-16T01:04:29;19.30;99.90
6788;DHT22;3431;47.966;10.268;2023-07-16T01:04:51;19.30;99.90
6788;DHT22;3431;47.966;10.268;2023-07-16T01:05:14;19.20;99.90
6788;DHT22;3431;47.966;10.268;2023-07-16T01:05:49;19.30;99.90
6788;DHT22;3431;47.966;10.268;2023-07-16T01:06:16;19.30;99.90
6788;DHT22;3431;47.966;10.268;2023-07-16T01:06:41;19.30;99.90
6788;DHT22;3431;47.966;10.268;2023-07-16T01:07:08;19.30;99.90
6788;DHT22;3431;47.966;10.268;2023-07-16T01:07:31;19.30;99.90
6788;DHT22;3431;47.966;10.268;2023-07-16T01:07:56;19.20;99.90
6788;DHT22;3431;47.966;10.268;2023-07-16T01:08:27;19.20;99.90
6788;DHT22;3431;47.966;10.268;2023-07-16T01:08:57;19.20;99.90
6788;DHT22;3431;47.966;10.268;2023-07-16T01:09:20;19.20;99.90
6788;DHT22;3431;47.966;10.268;2023-07-16T01:09:43;19.20;99.90
6788;DHT22;3431;47.966;10.268;2023-07-16T01:10:07;19.20;99.90
6788;DHT22;3431;47.966;10.268;2023-07-16T01:10:30;19.20;99.90
6788;DHT22;3431;47.966;10.268;2023-07-16T01:10:52;19.20;99.90
6788;DHT22;3431;47.966;10.268;2023-07-16T01:11:15;19.20;99.90
6788;DHT22;3431;47.966;10.268;2023-07-16T01:11:37;19.20;99.90
6788;DHT22;3431;47.966;10.268;2023-07-16T01:12:02;19.20;99.90
6788;DHT22;3431;47.966;10.268;2023-07-16T01:12:24;19.10;99.90
6788;DHT22;3431;47.966;10.268;2023-07-16T01:12:50;19.20;99.90
6788;DHT22;3431;47.966;10.268;2023-07-16T01:13:13;19.20;99.90
6788;DHT22;3431;47.966;10.268;2023-07-16T01:13:34;19.10;99.90
6788;DHT22;3431;47.966;10.268;2023-07-16T01:13:57;19.20;99.90
6788;DHT22;3431;47.966;10.268;2023-07-16T01:14:19;19.10;99.90
6788;DHT22;3431;47.966;10.268;2023-07-16T01:14:42;19.20;99.90
6788;DHT22;3431;47.966;10.268;2023-07-16T01:15:05;19.10;99.90
6788;DHT22;3431;47.966;10.268;2023-07-16T01:15:26;19.10;99.90
6788;DHT22;3431;47.966;10.268;2023-07-16T01:15:48;19.10;99.90
6788;DHT22;3431;47.966;10.268;2023-07-16T01:16:18;19.10;99.90
6788;DHT22;3431;47.966;10.268;2023-07-16T01:16:41;19.10;99.90
6788;DHT22;3431;47.966;10.268;2023-07-16T01:17:04;19.10;99.90
6788;DHT22;3431;47.966;10.268;2023-07-16T01:17:26;19.10;99.90
6788;DHT22;3431;47.966;10.268;2023-07-16T01:17:47;19.00;99.90
6788;DHT22;3431;47.966;10.268;2023-07-16T01:18:09;19.10;99.90
6788;DHT22;3431;47.966;10.268;2023-07-16T01:18:31;19.10;99.90
6788;DHT22;3431;47.966;10.268;2023-07-16T01:18:53;19.10;99.90
6788;DHT22;3431;47.966;10.268;2023-07-16T01:19:14;19.10;99.90
6788;DHT22;3431;47.966;10.268;2023-07-16T01:19:36;19.10;99.90
6788;DHT22;3431;47.966;10.268;2023-07-16T01:19:57;19.10;99.90
6788;DHT22;3431;47.966;10.268;2023-07-16T01:20:19;19.10;99.90
6788;DHT22;3431;47.966;10.268;2023-07-16T01:20:41;19.10;99.90
6788;DHT22;3431;47.966;10.268;2023-07-16T01:21:04;19.10;99.90
6788;DHT22;3431;47.966;10.268;2023-07-16T01:21:31;19.10;99.90
6788;DHT22;3431;47.966;10.268;2023-07-16T01:22:03;19.10;99.90
6788;DHT22;3431;47.966;10.268;2023-07-16T01:22:52;19.10;99.90
6788;DHT22;3431;47.966;10.268;2023-07-16T01:23:33;19.10;99.90
6788;DHT22;3431;47.966;10.268;2023-07-16T01:24:17;19.10;99.90
6788;DHT22;3431;47.966;10.268;2023-07-16T01:25:01;19.10;99.90
6788;DHT22;3431;47.966;10.268;2023-07-16T01:25:41;19.10;99.90
6788;DHT22;3431;47.966;10.268;2023-07-16T01:26:14;19.20;99.90
6788;DHT22;3431;47.966;10.268;2023-07-16T01:26:56;19.10;99.90
6788;DHT22;3431;47.966;10.268;2023-07-16T01:27:40;19.10;99.90
6788;DHT22;3431;47.966;10.268;2023-07-16T01:28:17;19.10;99.90
6788;DHT22;3431;47.966;10.268;2023-07-16T01:29:41;19.10;99.90
6788;DHT22;3431;47.966;10.268;2023-07-16T01:30:05;19.20;99.90
6788;DHT22;3431;47.966;10.268;2023-07-16T01:30:30;19.20;99.90
6788;DHT22;3431;47.966;10.268;2023-07-16T01:30:53;19.20;99.90
6788;DHT22;3431;47.966;10.268;2023-07-16T01:31:17;19.20;99.90
6788;DHT22;3431;47.966;10.268;2023-07-16T01:31:40;19.20;99.90
6788;DHT22;3431;47.966;10.268;2023-07-16T01:32:04;19.20;99.90
6788;DHT22;3431;47.966;10.268;2023-07-16T01:32:27;19.20;99.90
6788;DHT22;3431;47.966;10.268;2023-07-16T01:32:49;19.20;99.90
6788;DHT22;3431;47.966;10.268;2023-07-16T01:33:13;19.20;99.90
6788;DHT22;3431;47.966;10.268;2023-07-16T01:33:37;19.20;99.90
6788;DHT22;3431;47.966;10.268;2023-07-16T01:34:00;19.20;99.90
6788;DHT22;3431;47.966;10.268;2023-07-16T01:34:27;19.20;99.90
6788;DHT22;3431;47.966;10.268;2023-07-16T01:34:52;19.20;99.90
6788;DHT22;3431;47.966;10.268;2023-07-16T01:35:15;19.20;99.90
6788;DHT22;3431;47.966;10.268;2023-07-16T01:35:37;19.20;99.90
6788;DHT22;3431;47.966;10.268;2023-07-16T01:36:01;19.20;99.90
6788;DHT22;3431;47.966;10.268;2023-07-16T01:36:24;19.20;99.90
6788;DHT22;3431;47.966;10.268;2023-07-16T01:36:46;19.20;99.90
6788;DHT22;3431;47.966;10.268;2023-07-16T01:37:09;19.20;99.90
6788;DHT22;3431;47.966;10.268;2023-07-16T01:37:31;19.20;99.90
6788;DHT22;3431;47.966;10.268;2023-07-16T01:37:53;19.20;99.90
6788;DHT22;3431;47.966;10.268;2023-07-16T01:38:15;19.20;99.90
6788;DHT22;3431;47.966;10.268;2023-07-16T01:38:37;19.20;99.90
6788;DHT22;3431;47.966;10.268;2023-07-16T01:39:00;19.20;99.90
6788;DHT22;3431;47.966;10.268;2023-07-16T01:39:21;19.20;99.90
6788;DHT22;3431;47.966;10.268;2023-07-16T01:39:43;19.20;99.90
6788;DHT22;3431;47.966;10.268;2023-07-16T01:40:07;19.20;99.90
6788;DHT22;3431;47.966;10.268;2023-07-16T01:40:30;19.20;99.90
6788;DHT22;3431;47.966;10.268;2023-07-16T01:40:53;19.20;99.90
6788;DHT22;3431;47.966;10.268;2023-07-16T01:41:14;19.20;99.90
6788;DHT22;3431;47.966;10.268;2023-07-16T01:41:36;19.20;99.90
6788;DHT22;3431;47.966;10.268;2023-07-16T01:41:57;19.10;99.90
6788;DHT22;3431;47.966;10.268;2023-07-16T01:42:19;19.20;99.90
6788;DHT22;3431;47.966;10.268;2023-07-16T01:42:41;19.30;99.90
6788;DHT22;3431;47.966;10.268;2023-07-16T01:43:05;19.10;99.90
6788;DHT22;3431;47.966;10.268;2023-07-16T01:43:26;19.10;99.90
6788;DHT22;3431;47.966;10.268;2023-07-16T01:43:48;19.10;99.90
6788;DHT22;3431;47.966;10.268;2023-07-16T01:44:09;19.10;99.90
6788;DHT22;3431;47.966;10.268;2023-07-16T01:44:31;19.10;99.90
6788;DHT22;3431;47.966;10.268;2023-07-16T01:44:55;19.20;99.90
6788;DHT22;3431;47.966;10.268;2023-07-16T01:45:17;19.20;99.90
6788;DHT22;3431;47.966;10.268;2023-07-16T01:45:38;19.20;99.90
6788;DHT22;3431;47.966;10.268;2023-07-16T01:46:00;19.20;99.90
6788;DHT22;3431;47.966;10.268;2023-07-16T01:46:21;19.20;99.90
6788;DHT22;3431;47.966;10.268;2023-07-16T01:46:43;19.20;99.90
6788;DHT22;3431;47.966;10.268;2023-07-16T01:47:13;19.30;99.90
6788;DHT22;3431;47.966;10.268;2023-07-16T01:47:43;19.20;99.90
6788;DHT22;3431;47.966;10.268;2023-07-16T01:48:16;19.30;99.90
6788;DHT22;3431;47.966;10.268;2023-07-16T01:48:40;19.30;99.90
6788;DHT22;3431;47.966;10.268;2023-07-16T01:49:01;19.40;99.90
6788;DHT22;3431;47.966;10.268;2023-07-16T01:49:24;19.40;99.90
6788;DHT22;3431;47.966;10.268;2023-07-16T01:49:45;19.40;99.90
6788;DHT22;3431;47.966;10.268;2023-07-16T01:50:09;19.40;99.90
6788;DHT22;3431;47.966;10.268;2023-07-16T01:50:31;19.40;99.90
6788;DHT22;3431;47.966;10.268;2023-07-16T01:50:52;19.40;99.90
6788;DHT22;3431;47.966;10.268;2023-07-16T01:51:15;19.50;99.90
6788;DHT22;3431;47.966;10.268;2023-07-16T01:51:36;19.50;99.90
6788;DHT22;3431;47.966;10.268;2023-07-16T01:51:59;19.50;99.90
6788;DHT22;3431;47.966;10.268;2023-07-16T01:52:21;19.50;99.90
6788;DHT22;3431;47.966;10.268;2023-07-16T01:52:44;19.60;99.90
6788;DHT22;3431;47.966;10.268;2023-07-16T01:53:05;19.60;99.90
6788;DHT22;3431;47.966;10.268;2023-07-16T01:53:28;19.60;99.90
6788;DHT22;3431;47.966;10.268;2023-07-16T01:53:49;19.60;99.90
6788;DHT22;3431;47.966;10.268;2023-07-16T01:54:11;19.60;99.90
6788;DHT22;3431;47.966;10.268;2023-07-16T01:54:32;19.60;99.90
6788;DHT22;3431;47.966;10.268;2023-07-16T01:54:54;19.70;99.90
6788;DHT22;3431;47.966;10.268;2023-07-16T01:55:16;19.70;99.90
6788;DHT22;3431;47.966;10.268;2023-07-16T01:55:38;19.70;99.90
6788;DHT22;3431;47.966;10.268;2023-07-16T01:56:01;19.70;99.90
6788;DHT22;3431;47.966;10.268;2023-07-16T01:56:23;22.00;99.90
6788;DHT22;3431;47.966;10.268;2023-07-16T01:56:45;19.80;99.90
6788;DHT22;3431;47.966;10.268;2023-07-16T01:57:06;19.80;99.90
6788;DHT22;3431;47.966;10.268;2023-07-16T01:57:29;19.80;99.90
6788;DHT22;3431;47.966;10.268;2023-07-16T01:57:50;19.90;99.90
6788;DHT22;3431;47.966;10.268;2023-07-16T01:58:12;19.90;99.90
6788;DHT22;3431;47.966;10.268;2023-07-16T01:58:33;19.90;99.90
6788;DHT22;3431;47.966;10.268;2023-07-16T01:58:55;19.90;99.90
6788;DHT22;3431;47.966;10.268;2023-07-16T01:59:18;19.90;99.90
6788;DHT22;3431;47.966;10.268;2023-07-16T01:59:40;19.90;99.90
6788;DHT22;3431;47.966;10.268;2023-07-16T02:00:03;20.00;99.90
6788;DHT22;3431;47.966;10.268;2023-07-16T02:00:26;20.00;99.90
6788;DHT22;3431;47.966;10.268;2023-07-16T02:00:49;20.00;99.90
6788;DHT22;3431;47.966;10.268;2023-07-16T02:01:11;20.00;99.90
6788;DHT22;3431;47.966;10.268;2023-07-16T02:01:34;20.00;99.90
6788;DHT22;3431;47.966;10.268;2023-07-16T02:01:55;20.10;99.90
6788;DHT22;3431;47.966;10.268;2023-07-16T02:02:18;20.10;99.90
6788;DHT22;3431;47.966;10.268;2023-07-16T02:02:40;20.10;99.90
6788;DHT22;3431;47.966;10.268;2023-07-16T02:03:02;20.10;99.90
6788;DHT22;3431;47.966;10.268;2023-07-16T02:03:27;20.10;99.90
6788;DHT22;3431;47.966;10.268;2023-07-16T02:03:48;20.10;99.90
6788;DHT22;3431;47.966;10.268;2023-07-16T02:04:10;20.20;99.90
6788;DHT22;3431;47.966;10.268;2023-07-16T02:04:31;20.10;99.90
6788;DHT22;3431;47.966;10.268;2023-07-16T02:04:53;20.10;99.90
6788;DHT22;3431;47.966;10.268;2023-07-16T02:05:16;20.00;99.90
6788;DHT22;3431;47.966;10.268;2023-07-16T02:05:38;20.00;99.90
6788;DHT22;3431;47.966;10.268;2023-07-16T02:06:00;20.00;99.90
6788;DHT22;3431;47.966;10.268;2023-07-16T02:06:21;19.90;99.90
6788;DHT22;3431;47.966;10.268;2023-07-16T02:06:43;19.90;99.90
6788;DHT22;3431;47.966;10.268;2023-07-16T02:07:06;19.90;99.90
6788;DHT22;3431;47.966;10.268;2023-07-16T02:07:27;19.90;99.90
6788;DHT22;3431;47.966;10.268;2023-07-16T02:07:51;19.90;99.90
6788;DHT22;3431;47.966;10.268;2023-07-16T02:08:12;19.80;99.90
6788;DHT22;3431;47.966;10.268;2023-07-16T02:08:34;19.80;99.90
6788;DHT22;3431;47.966;10.268;2023-07-16T02:08:58;19.80;99.90
6788;DHT22;3431;47.966;10.268;2023-07-16T02:09:20;19.80;99.90
6788;DHT22;3431;47.966;10.268;2023-07-16T02:09:42;19.70;99.90
6788;DHT22;3431;47.966;10.268;2023-07-16T02:10:04;19.70;99.90
6788;DHT22;3431;47.966;10.268;2023-07-16T02:10:27;19.70;99.90
6788;DHT22;3431;47.966;10.268;2023-07-16T02:10:50;19.60;99.90
6788;DHT22;3431;47.966;10.268;2023-07-16T02:11:11;19.60;99.90
6788;DHT22;3431;47.966;10.268;2023-07-16T02:11:33;19.60;99.90
6788;DHT22;3431;47.966;10.268;2023-07-16T02:11:54;19.60;99.90
6788;DHT22;3431;47.966;10.268;2023-07-16T02:12:16;19.50;99.90
6788;DHT22;3431;47.966;10.268;2023-07-16T02:12:37;19.50;99.90
6788;DHT22;3431;47.966;10.268;2023-07-16T02:13:01;19.50;99.90
6788;DHT22;3431;47.966;10.268;2023-07-16T02:13:22;19.50;99.90
6788;DHT22;3431;47.966;10.268;2023-07-16T02:13:44;19.40;99.90
6788;DHT22;3431;47.966;10.268;2023-07-16T02:14:05;19.40;99.90
6788;DHT22;3431;47.966;10.268;2023-07-16T02:14:27;19.40;99.90
6788;DHT22;3431;47.966;10.268;2023-07-16T02:14:48;19.40;99.90
6788;DHT22;3431;47.966;10.268;2023-07-16T02:15:12;19.40;99.90
6788;DHT22;3431;47.966;10.268;2023-07-16T02:15:34;19.40;99.90
6788;DHT22;3431;47.966;10.268;2023-07-16T02:15:57;19.40;99.90
6788;DHT22;3431;47.966;10.268;2023-07-16T02:16:19;19.30;99.90
6788;DHT22;3431;47.966;10.268;2023-07-16T02:16:41;19.30;99.90
6788;DHT22;3431;47.966;10.268;2023-07-16T02:17:04;19.30;99.90
6788;DHT22;3431;47.966;10.268;2023-07-16T02:17:26;19.30;99.90
6788;DHT22;3431;47.966;10.268;2023-07-16T02:17:47;19.30;99.90
6788;DHT22;3431;47.966;10.268;2023-07-16T02:18:11;19.20;99.90
6788;DHT22;3431;47.966;10.268;2023-07-16T02:18:33;19.30;99.90
6788;DHT22;3431;47.966;10.268;2023-07-16T02:18:55;19.20;99.90
6788;DHT22;3431;47.966;10.268;2023-07-16T02:19:17;19.20;99.90
6788;DHT22;3431;47.966;10.268;2023-07-16T02:19:38;18.60;99.90
6788;DHT22;3431;47.966;10.268;2023-07-16T02:20:00;19.20;99.90
6788;DHT22;3431;47.966;10.268;2023-07-16T02:20:21;19.20;99.90
6788;DHT22;3431;47.966;10.268;2023-07-16T02:20:44;19.20;99.90
6788;DHT22;3431;47.966;10.268;2023-07-16T02:21:06;19.30;99.90
6788;DHT22;3431;47.966;10.268;2023-07-16T02:21:27;19.20;99.90
6788;DHT22;3431;47.966;10.268;2023-07-16T02:21:49;19.20;99.90
6788;DHT22;3431;47.966;10.268;2023-07-16T02:22:10;19.20;99.90
6788;DHT22;3431;47.966;10.268;2023-07-16T02:22:34;19.20;99.90
6788;DHT22;3431;47.966;10.268;2023-07-16T02:22:56;19.20;99.90
6788;DHT22;3431;47.966;10.268;2023-07-16T02:23:18;19.20;99.90
6788;DHT22;3431;47.966;10.268;2023-07-16T02:23:39;19.20;99.90
6788;DHT22;3431;47.966;10.268;2023-07-16T02:24:01;19.10;99.90
6788;DHT22;3431;47.966;10.268;2023-07-16T02:24:23;19.10;99.90
6788;DHT22;3431;47.966;10.268;2023-07-16T02:24:46;19.10;99.90
6788;DHT22;3431;47.966;10.268;2023-07-16T02:25:08;19.10;99.90
6788;DHT22;3431;47.966;10.268;2023-07-16T02:25:31;19.00;99.90
6788;DHT22;3431;47.966;10.268;2023-07-16T02:25:53;19.00;99.90
6788;DHT22;3431;47.966;10.268;2023-07-16T02:26:14;18.90;99.90
6788;DHT22;3431;47.966;10.268;2023-07-16T02:26:39;18.90;99.90
6788;DHT22;3431;47.966;10.268;2023-07-16T02:27:01;18.90;99.90
6788;DHT22;3431;47.966;10.268;2023-07-16T02:27:22;18.80;99.90
6788;DHT22;3431;47.966;10.268;2023-07-16T02:27:44;18.80;99.90
6788;DHT22;3431;47.966;10.268;2023-07-16T02:28:05;18.80;99.90
6788;DHT22;3431;47.966;10.268;2023-07-16T02:28:28;18.70;99.90